Time;durP1;ratioP1;P1;durP2;ratioP2;P2;SDS_P1;SDS_P2;PMS_P1;PMS_P2;Temp;Humidity;BMP_temperature;BMP_pressure;BME280_temperature;BME280_humidity;BME280_pressure;Samples;Min_cycle;Max_cycle;Signal;HPM_P1;HPM_P2
2022/01/02 00:00:22;;;;;;;;;;;;;;;19.45;52.79;100551.19;2090832;28;19912;-40
2022/01/02 00:01:24;;;;;;;;;;;;;;;19.46;52.74;100552.03;2094553;28;20493;-40
2022/01/02 00:02:27;;;;;;;;;;;;;;;19.47;52.73;100559.22;2082059;28;19916;-40
2022/01/02 00:03:30;;;;;;;;;;;;;;;19.48;52.71;100550.03;2088909;28;19912;-40
2022/01/02 00:04:34;;;;;;;;;;;;;;;19.48;52.67;100544.56;2095257;28;19928;-39
2022/01/02 00:05:36;;;;;;;;;;;;;;;19.47;52.69;100545.53;2091790;28;20113;-40
2022/01/02 00:06:40;;;;;;;;;;;;;;;19.47;52.62;100538.19;2090895;28;20231;-40
2022/01/02 00:07:55;;;;;;;;;;;;;;;19.49;52.63;100535.34;2086628;28;20133;-40
2022/01/02 00:09:00;;;;;;;;;;;;;;;19.50;52.68;100542.56;2086675;28;19904;-40
2022/01/02 00:10:05;;;;;;;;;;;;;;;19.49;52.56;100528.00;2089875;28;19920;-40
2022/01/02 00:11:06;;;;;;;;;;;;;;;19.49;52.62;100529.88;2092376;28;20031;-40
2022/01/02 00:12:14;;;;;;;;;;;;;;;19.49;52.63;100522.53;2086178;28;20531;-40
2022/01/02 00:13:15;;;;;;;;;;;;;;;19.48;52.57;100522.69;2087337;28;19920;-41
2022/01/02 00:14:20;;;;;;;;;;;;;;;19.48;52.71;100523.53;2090721;28;20354;-41
2022/01/02 00:15:20;;;;;;;;;;;;;;;19.49;52.56;100538.94;2089648;28;19920;-40
2022/01/02 00:16:21;;;;;;;;;;;;;;;19.50;52.65;100542.56;2091558;28;20930;-40
2022/01/02 00:17:23;;;;;;;;;;;;;;;19.48;52.66;100548.16;2089351;28;20221;-40
2022/01/02 00:18:27;;;;;;;;;;;;;;;19.49;52.56;100555.34;2092068;28;20428;-40
2022/01/02 00:19:30;;;;;;;;;;;;;;;19.49;52.64;100562.69;2091333;28;19916;-40
2022/01/02 00:20:36;;;;;;;;;;;;;;;19.51;52.67;100554.34;2090088;28;19971;-41
2022/01/02 00:21:41;;;;;;;;;;;;;;;19.50;52.83;100558.97;2096547;28;20110;-39
2022/01/02 00:22:48;;;;;;;;;;;;;;;19.48;52.67;100544.56;2091868;28;19962;-39
2022/01/02 00:24:01;;;;;;;;;;;;;;;19.48;52.62;100550.03;2092831;28;19916;-39
2022/01/02 00:25:06;;;;;;;;;;;;;;;19.47;52.65;100549.13;2094403;28;20011;-39
2022/01/02 00:26:15;;;;;;;;;;;;;;;19.47;52.73;100542.81;2094710;28;19908;-39
2022/01/02 00:27:15;;;;;;;;;;;;;;;19.47;52.70;100543.66;2090764;28;20280;-40
2022/01/02 00:28:17;;;;;;;;;;;;;;;19.46;52.72;100552.91;2095161;28;20376;-39
2022/01/02 00:29:19;;;;;;;;;;;;;;;19.47;52.81;100542.81;2097000;28;19912;-40
2022/01/02 00:30:20;;;;;;;;;;;;;;;19.47;52.72;100553.75;2096161;28;19999;-40
2022/01/02 00:31:20;;;;;;;;;;;;;;;19.46;52.61;100546.56;2084766;28;19969;-40
2022/01/02 00:32:21;;;;;;;;;;;;;;;19.45;52.72;100539.34;2089000;28;19916;-40
2022/01/02 00:33:23;;;;;;;;;;;;;;;19.45;52.82;100544.81;2093223;28;20365;-40
2022/01/02 00:34:23;;;;;;;;;;;;;;;19.44;52.85;100548.56;2091766;28;19915;-40
2022/01/02 00:35:24;;;;;;;;;;;;;;;19.45;52.81;100542.97;2092011;28;19969;-40
2022/01/02 00:36:24;;;;;;;;;;;;;;;19.44;52.75;100543.09;2091055;28;19916;-40
2022/01/02 00:37:25;;;;;;;;;;;;;;;19.45;52.82;100539.34;2095180;28;19916;-40
2022/01/02 00:38:25;;;;;;;;;;;;;;;19.43;52.82;100531.31;2091324;28;19908;-42
2022/01/02 00:39:25;;;;;;;;;;;;;;;19.44;52.84;100532.16;2093961;28;20289;-40
2022/01/02 00:40:26;;;;;;;;;;;;;;;19.45;52.84;100533.88;2082542;28;19915;-39
2022/01/02 00:41:41;;;;;;;;;;;;;;;19.44;52.79;100532.16;2085933;28;19931;-40
2022/01/02 00:42:42;;;;;;;;;;;;;;;19.44;52.87;100534.91;2085528;28;19930;-40
2022/01/02 00:43:47;;;;;;;;;;;;;;;19.45;52.83;100536.63;2090605;28;19914;-39
2022/01/02 00:44:47;;;;;;;;;;;;;;;19.44;52.84;100537.63;2089016;28;19916;-40
2022/01/02 00:45:49;;;;;;;;;;;;;;;19.44;52.85;100543.09;2090832;28;20382;-40
2022/01/02 00:47:12;;;;;;;;;;;;;;;19.44;52.81;100548.56;2093836;28;19924;-40
2022/01/02 00:48:16;;;;;;;;;;;;;;;19.44;52.88;100538.50;2079689;28;19953;-40
2022/01/02 00:49:19;;;;;;;;;;;;;;;19.44;52.82;100537.63;2092241;28;20337;-40
2022/01/02 00:50:29;;;;;;;;;;;;;;;19.44;52.91;100543.09;2090932;28;19920;-40
2022/01/02 00:51:46;;;;;;;;;;;;;;;19.44;52.89;100538.50;2090027;28;19928;-40
2022/01/02 00:52:47;;;;;;;;;;;;;;;19.45;52.93;100542.09;2092708;28;20216;-39
2022/01/02 00:53:49;;;;;;;;;;;;;;;19.44;52.85;100537.63;2089811;28;20753;-39
2022/01/02 00:54:50;;;;;;;;;;;;;;;19.45;52.82;100539.34;2084887;28;19921;-39
2022/01/02 00:55:57;;;;;;;;;;;;;;;19.44;52.84;100537.63;2078122;28;20023;-39
2022/01/02 00:57:03;;;;;;;;;;;;;;;19.44;52.84;100522.09;2092131;28;19916;-39
2022/01/02 00:58:07;;;;;;;;;;;;;;;19.43;52.94;100525.00;2086639;28;20412;-39
2022/01/02 00:59:12;;;;;;;;;;;;;;;19.40;53.00;100525.25;2093434;28;19923;-39
2022/01/02 01:00:16;;;;;;;;;;;;;;;19.37;52.99;100526.41;2089874;28;19916;-39
2022/01/02 01:01:24;;;;;;;;;;;;;;;19.36;53.12;100534.75;2092919;28;20062;-39
2022/01/02 01:02:28;;;;;;;;;;;;;;;19.33;53.28;100524.97;2091533;28;19923;-38
2022/01/02 01:03:30;;;;;;;;;;;;;;;19.31;53.31;100531.59;2087783;28;19966;-39
2022/01/02 01:04:31;;;;;;;;;;;;;;;19.31;53.40;100526.13;2091653;28;20035;-39
2022/01/02 01:05:32;;;;;;;;;;;;;;;19.27;53.45;100526.38;2091733;28;20561;-39
2022/01/02 01:06:33;;;;;;;;;;;;;;;19.27;53.57;100537.31;2093588;28;20583;-39
2022/01/02 01:07:34;;;;;;;;;;;;;;;19.26;53.63;100540.19;2092197;28;19970;-38
2022/01/02 01:08:35;;;;;;;;;;;;;;;19.24;53.63;100543.06;2093605;28;19927;-39
2022/01/02 01:09:35;;;;;;;;;;;;;;;19.24;53.67;100542.22;2094132;28;20019;-39
2022/01/02 01:10:38;;;;;;;;;;;;;;;19.22;53.67;100536.88;2094530;28;19912;-39
2022/01/02 01:11:41;;;;;;;;;;;;;;;19.20;53.76;100530.66;2087375;28;19923;-38
2022/01/02 01:12:41;;;;;;;;;;;;;;;19.20;53.79;100533.41;2094419;28;20087;-38
2022/01/02 01:13:42;;;;;;;;;;;;;;;19.20;53.78;100538.88;2093523;28;20245;-39
2022/01/02 01:14:43;;;;;;;;;;;;;;;19.20;53.82;100541.59;2095662;28;19916;-39
2022/01/02 01:15:43;;;;;;;;;;;;;;;19.20;53.81;100540.75;2091856;28;19938;-39
2022/01/02 01:16:44;;;;;;;;;;;;;;;19.19;53.91;100531.69;2093399;28;19923;-39
2022/01/02 01:17:45;;;;;;;;;;;;;;;19.18;53.81;100529.97;2093349;28;19951;-38
2022/01/02 01:18:45;;;;;;;;;;;;;;;19.19;53.87;100536.31;2089724;28;19923;-39
2022/01/02 01:19:46;;;;;;;;;;;;;;;19.17;53.98;100530.09;2092953;28;19972;-39
2022/01/02 01:20:46;;;;;;;;;;;;;;;19.17;53.89;100530.09;2092407;28;19983;-39
2022/01/02 01:21:46;;;;;;;;;;;;;;;19.17;53.81;100533.69;2092946;28;19977;-39
2022/01/02 01:22:48;;;;;;;;;;;;;;;19.16;53.91;100529.25;2094601;28;20332;-39
2022/01/02 01:23:48;;;;;;;;;;;;;;;19.18;53.70;100529.09;2094270;28;19923;-39
2022/01/02 01:24:49;;;;;;;;;;;;;;;19.18;53.84;100531.81;2092640;28;19912;-41
2022/01/02 01:25:50;;;;;;;;;;;;;;;19.19;53.78;100542.63;2094154;28;19915;-39
2022/01/02 01:26:53;;;;;;;;;;;;;;;19.20;53.81;100530.66;2085481;28;20257;-39
2022/01/02 01:27:54;;;;;;;;;;;;;;;19.21;53.83;100545.22;2090662;28;20041;-39
2022/01/02 01:28:54;;;;;;;;;;;;;;;19.22;53.76;100550.53;2094178;28;19908;-39
2022/01/02 01:29:54;;;;;;;;;;;;;;;19.22;53.85;100542.34;2088372;28;20318;-39
2022/01/02 01:30:56;;;;;;;;;;;;;;;19.23;53.81;100543.19;2094177;28;19908;-39
2022/01/02 01:31:56;;;;;;;;;;;;;;;19.25;53.67;100543.91;2089745;28;19908;-39
2022/01/02 01:32:57;;;;;;;;;;;;;;;19.25;53.82;100544.78;2091049;28;19912;-39
2022/01/02 01:33:57;;;;;;;;;;;;;;;19.25;53.59;100533.84;2094421;28;19971;-42
2022/01/02 01:34:57;;;;;;;;;;;;;;;19.27;53.62;100531.84;2091478;28;19919;-43
2022/01/02 01:35:58;;;;;;;;;;;;;;;19.28;53.54;100539.06;2094179;28;20463;-42
2022/01/02 01:36:58;;;;;;;;;;;;;;;19.32;53.46;100538.75;2082999;28;19999;-42
2022/01/02 01:37:58;;;;;;;;;;;;;;;19.32;53.48;100534.16;2092227;28;19926;-42
2022/01/02 01:38:59;;;;;;;;;;;;;;;19.34;53.43;100531.28;2093893;28;19956;-42
2022/01/02 01:39:59;;;;;;;;;;;;;;;19.34;53.40;100532.16;2092149;28;19920;-42
2022/01/02 01:41:20;;;;;;;;;;;;;;;19.37;53.27;100529.13;2094715;28;19923;-42
2022/01/02 01:42:30;;;;;;;;;;;;;;;19.39;53.42;100529.00;2075280;28;19908;-43
2022/01/02 01:43:39;;;;;;;;;;;;;;;19.40;53.22;100525.25;2086244;28;19916;-44
2022/01/02 01:44:52;;;;;;;;;;;;;;;19.41;53.09;100529.72;2093748;28;20249;-43
2022/01/02 01:45:52;;;;;;;;;;;;;;;19.42;53.17;100525.97;2094763;28;20331;-43
2022/01/02 01:46:55;;;;;;;;;;;;;;;19.44;53.18;100529.44;2085842;28;19920;-44
2022/01/02 01:48:00;;;;;;;;;;;;;;;19.45;53.15;100533.88;2095308;28;20011;-43
2022/01/02 01:49:01;;;;;;;;;;;;;;;19.46;53.14;100519.22;2092639;28;20590;-43
2022/01/02 01:50:01;;;;;;;;;;;;;;;19.47;53.06;100530.00;2086097;28;20349;-45
2022/01/02 01:51:01;;;;;;;;;;;;;;;19.49;53.10;100527.13;2084673;28;20785;-44
2022/01/02 01:52:02;;;;;;;;;;;;;;;19.49;53.04;100519.78;2092271;28;19927;-44
2022/01/02 01:53:03;;;;;;;;;;;;;;;19.51;53.07;100525.13;2094507;28;19909;-43
2022/01/02 01:54:03;;;;;;;;;;;;;;;19.53;52.93;100522.25;2092485;28;19944;-43
2022/01/02 01:55:05;;;;;;;;;;;;;;;19.53;52.96;100530.47;2093105;28;19973;-43
2022/01/02 01:56:05;;;;;;;;;;;;;;;19.53;52.95;100525.84;2076007;28;19915;-45
2022/01/02 01:57:05;;;;;;;;;;;;;;;19.54;52.93;100521.25;2080241;28;20535;-43
2022/01/02 01:58:06;;;;;;;;;;;;;;;19.55;52.95;100521.13;2085479;28;19916;-43
2022/01/02 01:59:07;;;;;;;;;;;;;;;19.55;52.93;100518.38;2091522;28;19913;-43
2022/01/02 02:00:09;;;;;;;;;;;;;;;19.56;52.83;100520.09;2093172;28;19909;-43
2022/01/02 02:01:10;;;;;;;;;;;;;;;19.57;52.84;100521.81;2091420;28;19916;-42
2022/01/02 02:02:10;;;;;;;;;;;;;;;19.57;52.80;100519.06;2092071;28;19916;-43
2022/01/02 02:03:11;;;;;;;;;;;;;;;19.57;52.83;100516.34;2094531;28;19916;-42
2022/01/02 02:04:11;;;;;;;;;;;;;;;19.59;52.77;100513.47;2090630;28;19908;-42
2022/01/02 02:05:12;;;;;;;;;;;;;;;19.59;52.63;100519.78;2082414;28;19963;-43
2022/01/02 02:06:12;;;;;;;;;;;;;;;19.59;52.71;100508.84;2084516;28;19935;-42
2022/01/02 02:07:14;;;;;;;;;;;;;;;19.59;52.79;100505.28;2091292;28;20412;-42
2022/01/02 02:08:15;;;;;;;;;;;;;;;19.60;52.65;100504.25;2090619;28;19966;-42
2022/01/02 02:09:16;;;;;;;;;;;;;;;19.60;52.77;100510.59;2088408;28;19920;-43
2022/01/02 02:10:23;;;;;;;;;;;;;;;19.61;52.70;100506.84;2091060;28;20717;-43
2022/01/02 02:11:24;;;;;;;;;;;;;;;19.62;52.59;100511.34;2089495;28;20405;-42
2022/01/02 02:12:25;;;;;;;;;;;;;;;19.61;52.76;100509.59;2088058;28;19916;-43
2022/01/02 02:13:25;;;;;;;;;;;;;;;19.62;52.79;100503.13;2090222;28;20269;-42
2022/01/02 02:14:26;;;;;;;;;;;;;;;19.61;52.76;100514.19;2082721;28;20271;-43
2022/01/02 02:15:26;;;;;;;;;;;;;;;19.62;52.76;100511.34;2090490;28;19920;-42
2022/01/02 02:16:27;;;;;;;;;;;;;;;19.62;52.66;100518.66;2091458;28;19916;-42
2022/01/02 02:17:28;;;;;;;;;;;;;;;19.62;52.76;100510.44;2088778;28;19912;-42
2022/01/02 02:18:28;;;;;;;;;;;;;;;19.61;52.75;100512.31;2091763;28;20286;-42
2022/01/02 02:19:29;;;;;;;;;;;;;;;19.61;52.68;100511.47;2086472;28;20385;-42
2022/01/02 02:20:30;;;;;;;;;;;;;;;19.60;52.79;100510.59;2093529;28;20801;-44
2022/01/02 02:21:32;;;;;;;;;;;;;;;19.59;52.72;100508.84;2092438;28;19919;-43
2022/01/02 02:22:35;;;;;;;;;;;;;;;19.59;52.69;100506.13;2092257;28;19908;-43
2022/01/02 02:23:36;;;;;;;;;;;;;;;19.61;52.71;100512.31;2093875;28;19916;-43
2022/01/02 02:24:37;;;;;;;;;;;;;;;19.60;52.71;100516.06;2086775;28;20011;-43
2022/01/02 02:25:38;;;;;;;;;;;;;;;19.60;52.69;100505.13;2094158;28;19908;-43
2022/01/02 02:26:38;;;;;;;;;;;;;;;19.61;52.80;100506.00;2087255;28;20011;-43
2022/01/02 02:27:39;;;;;;;;;;;;;;;19.60;52.84;100515.19;2088423;28;19916;-43
2022/01/02 02:28:39;;;;;;;;;;;;;;;19.60;52.69;100515.19;2084480;28;19923;-43
2022/01/02 02:29:40;;;;;;;;;;;;;;;19.60;52.64;100505.13;2084195;28;19965;-43
2022/01/02 02:30:41;;;;;;;;;;;;;;;19.60;52.73;100515.19;2089563;28;19916;-43
2022/01/02 02:31:42;;;;;;;;;;;;;;;19.58;52.72;100506.28;2088327;28;19908;-44
2022/01/02 02:32:42;;;;;;;;;;;;;;;19.59;52.72;100502.53;2092422;28;19981;-43
2022/01/02 02:33:42;;;;;;;;;;;;;;;19.58;52.71;100511.75;2094463;28;20276;-44
2022/01/02 02:34:44;;;;;;;;;;;;;;;19.58;52.75;100506.28;2092246;28;19916;-44
2022/01/02 02:35:46;;;;;;;;;;;;;;;19.56;52.81;100509.16;2093642;28;19978;-43
2022/01/02 02:36:46;;;;;;;;;;;;;;;19.58;52.81;100507.16;2092308;28;19946;-43
2022/01/02 02:37:47;;;;;;;;;;;;;;;19.57;52.72;100505.41;2091055;28;20247;-44
2022/01/02 02:38:47;;;;;;;;;;;;;;;19.57;52.78;100515.47;2090364;28;19976;-44
2022/01/02 02:39:48;;;;;;;;;;;;;;;19.57;52.88;100516.34;2089889;28;20137;-43
2022/01/02 02:40:48;;;;;;;;;;;;;;;19.55;52.75;100507.44;2094056;28;20188;-43
2022/01/02 02:41:49;;;;;;;;;;;;;;;19.57;52.91;100510.00;2080726;28;20021;-43
2022/01/02 02:42:53;;;;;;;;;;;;;;;19.55;52.91;100504.72;2077984;28;19920;-43
2022/01/02 02:44:07;;;;;;;;;;;;;;;19.55;52.73;100507.44;2089389;28;19983;-44
2022/01/02 02:49:09;;;;;;;;;;;;;;;19.54;52.93;100505.69;2089037;28;19913;-43
2022/01/02 02:50:09;;;;;;;;;;;;;;;19.53;52.95;100503.13;2092506;28;19916;-43
2022/01/02 02:51:14;;;;;;;;;;;;;;;19.53;52.91;100500.38;2084368;28;19920;-44
2022/01/02 02:52:38;;;;;;;;;;;;;;;19.53;52.98;100509.44;2094457;28;19915;-43
2022/01/02 02:53:43;;;;;;;;;;;;;;;19.54;52.91;100504.84;2085702;28;19924;-44
2022/01/02 02:54:43;;;;;;;;;;;;;;;19.52;52.94;100502.22;2091825;28;19952;-44
2022/01/02 02:55:47;;;;;;;;;;;;;;;19.51;52.99;100506.00;2094154;28;20282;-43
2022/01/02 02:57:58;;;;;;;;;;;;;;;19.52;52.99;100510.44;2093021;28;20841;-43
2022/01/02 02:58:58;;;;;;;;;;;;;;;19.51;52.96;100516.94;2095719;28;20018;-44
2022/01/02 02:59:58;;;;;;;;;;;;;;;19.51;53.08;100511.47;2092045;28;19916;-43
2022/01/02 03:00:59;;;;;;;;;;;;;;;19.51;52.99;100516.94;2081481;28;19973;-43
2022/01/02 03:01:59;;;;;;;;;;;;;;;19.51;52.93;100527.88;2083094;28;19916;-43
2022/01/02 03:03:00;;;;;;;;;;;;;;;19.52;53.03;100524.09;2093480;28;20422;-43
2022/01/02 03:04:00;;;;;;;;;;;;;;;19.52;53.08;100524.09;2092269;28;19916;-43
2022/01/02 03:05:00;;;;;;;;;;;;;;;19.51;53.03;100519.66;2092216;28;19916;-43
2022/01/02 03:06:01;;;;;;;;;;;;;;;19.51;53.07;100525.13;2093251;28;19923;-42
2022/01/02 03:07:01;;;;;;;;;;;;;;;19.52;53.07;100523.25;2093129;28;20233;-43
2022/01/02 03:08:01;;;;;;;;;;;;;;;19.51;52.98;100516.06;2095074;28;19958;-42
2022/01/02 03:09:08;;;;;;;;;;;;;;;19.51;53.07;100522.41;2088472;28;19923;-42
2022/01/02 03:10:10;;;;;;;;;;;;;;;19.49;53.10;100522.53;2090899;28;19916;-42
2022/01/02 03:11:17;;;;;;;;;;;;;;;19.49;53.01;100517.06;2085474;28;19913;-42
2022/01/02 03:12:18;;;;;;;;;;;;;;;19.49;52.98;100513.47;2093091;28;19923;-42
2022/01/02 03:13:19;;;;;;;;;;;;;;;19.48;52.98;100518.06;2088564;28;19923;-42
2022/01/02 03:14:19;;;;;;;;;;;;;;;19.49;52.94;100516.19;2092292;28;20344;-42
2022/01/02 03:15:20;;;;;;;;;;;;;;;19.49;53.04;100513.47;2083549;28;19959;-43
2022/01/02 03:16:20;;;;;;;;;;;;;;;19.48;53.16;100515.34;2081824;28;19925;-42
2022/01/02 03:17:21;;;;;;;;;;;;;;;19.49;53.09;100508.00;2089332;28;19922;-43
2022/01/02 03:18:21;;;;;;;;;;;;;;;19.48;53.12;100517.22;2091121;28;19969;-42
2022/01/02 03:19:21;;;;;;;;;;;;;;;19.48;53.12;100512.59;2091521;28;19987;-42
2022/01/02 03:20:22;;;;;;;;;;;;;;;19.48;53.00;100519.94;2093268;28;19920;-42
2022/01/02 03:21:22;;;;;;;;;;;;;;;19.47;53.05;100507.28;2091665;28;19990;-43
2022/01/02 03:22:23;;;;;;;;;;;;;;;19.46;53.08;100505.56;2094843;28;19916;-43
2022/01/02 03:23:23;;;;;;;;;;;;;;;19.46;53.13;100508.28;2092961;28;20265;-43
2022/01/02 03:24:23;;;;;;;;;;;;;;;19.46;53.07;100509.16;2093324;28;20092;-42
2022/01/02 03:25:23;;;;;;;;;;;;;;;19.44;53.14;100504.81;2091727;28;20619;-42
2022/01/02 03:26:24;;;;;;;;;;;;;;;19.45;53.12;100503.81;2091822;28;20062;-43
2022/01/02 03:27:25;;;;;;;;;;;;;;;19.45;53.02;100501.97;2084829;28;20339;-42
2022/01/02 03:28:25;;;;;;;;;;;;;;;19.44;53.13;100500.22;2082598;28;19910;-43
2022/01/02 03:29:26;;;;;;;;;;;;;;;19.44;53.16;100504.81;2091761;28;19985;-43
2022/01/02 03:30:26;;;;;;;;;;;;;;;19.45;53.20;100506.53;2093921;28;20018;-43
2022/01/02 03:31:26;;;;;;;;;;;;;;;19.44;53.16;100504.81;2081438;28;19917;-44
2022/01/02 03:32:27;;;;;;;;;;;;;;;19.44;53.16;100508.41;2085428;28;19936;-43
2022/01/02 03:33:27;;;;;;;;;;;;;;;19.43;53.25;100503.13;2085764;28;20056;-43
2022/01/02 03:34:27;;;;;;;;;;;;;;;19.42;53.16;100501.38;2089055;28;20265;-42
2022/01/02 03:35:28;;;;;;;;;;;;;;;19.43;53.18;100500.38;2088696;28;19923;-43
2022/01/02 03:36:28;;;;;;;;;;;;;;;19.43;53.20;100503.13;2084503;28;20352;-42
2022/01/02 03:37:29;;;;;;;;;;;;;;;19.42;53.13;100502.22;2083663;28;19920;-43
2022/01/02 03:38:29;;;;;;;;;;;;;;;19.42;53.15;100496.75;2092002;28;19912;-43
2022/01/02 03:39:29;;;;;;;;;;;;;;;19.41;53.16;100500.50;2090420;28;19916;-43
2022/01/02 03:40:30;;;;;;;;;;;;;;;19.42;53.21;100495.91;2088199;28;19916;-43
2022/01/02 03:41:30;;;;;;;;;;;;;;;19.41;53.20;100496.91;2092290;28;19939;-43
2022/01/02 03:42:30;;;;;;;;;;;;;;;19.42;53.24;100501.38;2092462;28;19916;-43
2022/01/02 03:43:31;;;;;;;;;;;;;;;19.42;53.15;100504.97;2091529;28;19920;-43
2022/01/02 03:44:32;;;;;;;;;;;;;;;19.41;53.19;100496.91;2093495;28;20238;-44
2022/01/02 03:45:32;;;;;;;;;;;;;;;19.40;53.27;100497.91;2085382;28;19920;-42
2022/01/02 03:46:33;;;;;;;;;;;;;;;19.39;53.22;100496.19;2092527;28;19942;-43
2022/01/02 03:47:33;;;;;;;;;;;;;;;19.39;53.22;100496.19;2089921;28;19916;-43
2022/01/02 03:48:34;;;;;;;;;;;;;;;19.40;53.19;100492.44;2090172;28;20045;-43
2022/01/02 03:49:34;;;;;;;;;;;;;;;19.39;53.22;100496.19;2091796;28;19963;-43
2022/01/02 03:50:35;;;;;;;;;;;;;;;19.39;53.22;100496.19;2092293;28;20321;-43
2022/01/02 03:51:35;;;;;;;;;;;;;;;19.39;53.32;100496.19;2092011;28;20233;-42
2022/01/02 03:52:36;;;;;;;;;;;;;;;19.39;53.22;100491.59;2093453;28;19987;-42
2022/01/02 03:53:36;;;;;;;;;;;;;;;19.38;53.31;100486.28;2093345;28;20239;-42
2022/01/02 03:54:36;;;;;;;;;;;;;;;19.37;53.29;100493.59;2093195;28;20042;-42
2022/01/02 03:55:38;;;;;;;;;;;;;;;19.37;53.30;100488.13;2091584;28;19916;-42
2022/01/02 03:56:38;;;;;;;;;;;;;;;19.37;53.28;100487.25;2092772;28;19920;-43
2022/01/02 03:57:39;;;;;;;;;;;;;;;19.36;53.23;100485.56;2094566;28;19920;-43
2022/01/02 03:58:39;;;;;;;;;;;;;;;19.37;53.28;100481.78;2092262;28;19944;-42
2022/01/02 03:59:39;;;;;;;;;;;;;;;19.37;53.28;100479.06;2092065;28;20054;-42
2022/01/02 04:00:40;;;;;;;;;;;;;;;19.35;53.31;100472.88;2084821;28;19920;-43
2022/01/02 04:01:40;;;;;;;;;;;;;;;19.35;53.26;100481.06;2086165;28;19977;-43
2022/01/02 04:02:40;;;;;;;;;;;;;;;19.35;53.40;100478.34;2093681;28;19908;-43
2022/01/02 04:03:41;;;;;;;;;;;;;;;19.33;53.38;100483.97;2092435;28;19969;-49
2022/01/02 04:04:41;;;;;;;;;;;;;;;19.34;53.24;100482.94;2090181;28;20090;-43
2022/01/02 04:05:43;;;;;;;;;;;;;;;19.34;53.33;100487.56;2093311;28;20476;-43
2022/01/02 04:06:43;;;;;;;;;;;;;;;19.33;53.35;100481.22;2090090;28;19966;-43
2022/01/02 04:07:44;;;;;;;;;;;;;;;19.33;53.31;100475.75;2093532;28;20530;-43
2022/01/02 04:08:44;;;;;;;;;;;;;;;19.32;53.41;100473.16;2092610;28;20007;-42
2022/01/02 04:09:45;;;;;;;;;;;;;;;19.32;53.48;100479.50;2091064;28;20322;-43
2022/01/02 04:10:45;;;;;;;;;;;;;;;19.32;53.43;100467.69;2093777;28;19908;-43
2022/01/02 04:11:45;;;;;;;;;;;;;;;19.30;53.43;100466.97;2092043;28;19908;-43
2022/01/02 04:12:45;;;;;;;;;;;;;;;19.31;53.37;100465.97;2089977;28;19923;-42
2022/01/02 04:13:46;;;;;;;;;;;;;;;19.30;53.33;100464.22;2089463;28;19953;-43
2022/01/02 04:14:46;;;;;;;;;;;;;;;19.30;53.45;100464.22;2092549;28;20330;-43
2022/01/02 04:15:46;;;;;;;;;;;;;;;19.30;53.47;100464.22;2094366;28;19923;-42
2022/01/02 04:16:47;;;;;;;;;;;;;;;19.29;53.46;100468.84;2085326;28;20319;-43
2022/01/02 04:17:47;;;;;;;;;;;;;;;19.27;53.42;100466.25;2089584;28;19915;-43
2022/01/02 04:18:50;;;;;;;;;;;;;;;19.27;53.54;100466.25;2091400;28;20641;-42
2022/01/02 04:19:51;;;;;;;;;;;;;;;19.28;53.49;100469.88;2091137;28;20519;-43
2022/01/02 04:20:51;;;;;;;;;;;;;;;19.26;53.54;100467.25;2095672;28;20505;-43
2022/01/02 04:21:52;;;;;;;;;;;;;;;19.27;53.51;100459.91;2092611;28;19912;-43
2022/01/02 04:22:52;;;;;;;;;;;;;;;19.26;53.50;100460.94;2090258;28;19912;-42
2022/01/02 04:23:52;;;;;;;;;;;;;;;19.25;53.54;100457.31;2086728;28;20213;-43
2022/01/02 04:24:53;;;;;;;;;;;;;;;19.26;53.51;100459.06;2092018;28;20192;-43
2022/01/02 04:25:53;;;;;;;;;;;;;;;19.25;53.56;100462.78;2093377;28;20016;-42
2022/01/02 04:26:53;;;;;;;;;;;;;;;19.25;53.55;100456.47;2093583;28;20311;-44
2022/01/02 04:27:54;;;;;;;;;;;;;;;19.24;53.57;100463.81;2093308;28;19916;-42
2022/01/02 04:28:54;;;;;;;;;;;;;;;19.24;53.58;100460.22;2095023;28;19923;-43
2022/01/02 04:29:55;;;;;;;;;;;;;;;19.23;53.57;100464.81;2092094;28;20467;-43
2022/01/02 04:30:55;;;;;;;;;;;;;;;19.24;53.49;100466.53;2092727;28;19996;-42
2022/01/02 04:31:55;;;;;;;;;;;;;;;19.23;53.52;100475.75;2084339;28;19963;-43
2022/01/02 04:32:56;;;;;;;;;;;;;;;19.23;53.49;100475.75;2083706;28;21067;-43
2022/01/02 04:33:56;;;;;;;;;;;;;;;19.22;53.49;100482.22;2095211;28;19962;-43
2022/01/02 04:34:56;;;;;;;;;;;;;;;19.23;53.54;100477.59;2093807;28;20330;-43
2022/01/02 04:35:56;;;;;;;;;;;;;;;19.22;53.49;100468.53;2092099;28;20181;-42
2022/01/02 04:36:57;;;;;;;;;;;;;;;19.21;53.48;100466.81;2095238;28;19927;-44
2022/01/02 04:37:57;;;;;;;;;;;;;;;19.21;53.55;100465.97;2083538;28;20271;-43
2022/01/02 04:38:57;;;;;;;;;;;;;;;19.20;53.47;100465.09;2085289;28;19912;-43
2022/01/02 04:39:57;;;;;;;;;;;;;;;19.20;53.53;100467.81;2094548;28;19934;-43
2022/01/02 04:40:58;;;;;;;;;;;;;;;19.19;53.50;100463.38;2092935;28;19970;-43
2022/01/02 04:41:58;;;;;;;;;;;;;;;19.20;53.52;100469.69;2094807;28;19943;-43
2022/01/02 04:42:59;;;;;;;;;;;;;;;19.19;53.50;100468.84;2089536;28;19916;-44
2022/01/02 04:43:59;;;;;;;;;;;;;;;19.18;53.54;100467.13;2093403;28;19920;-43
2022/01/02 04:44:59;;;;;;;;;;;;;;;19.18;53.64;100467.13;2093528;28;19938;-44
2022/01/02 04:46:00;;;;;;;;;;;;;;;19.17;53.58;100462.63;2090812;28;20348;-46
2022/01/02 04:47:00;;;;;;;;;;;;;;;19.18;53.58;100460.75;2094286;28;19920;-43
2022/01/02 04:48:01;;;;;;;;;;;;;;;19.17;53.58;100459.06;2083339;28;19916;-43
2022/01/02 04:49:01;;;;;;;;;;;;;;;19.17;53.62;100451.72;2090976;28;19920;-43
2022/01/02 04:50:03;;;;;;;;;;;;;;;19.16;53.57;100447.25;2093544;28;19976;-43
2022/01/02 04:51:03;;;;;;;;;;;;;;;19.16;53.65;100447.25;2091141;28;19943;-42
2022/01/02 04:52:03;;;;;;;;;;;;;;;19.15;53.59;100450.97;2091872;28;19908;-42
2022/01/02 04:53:04;;;;;;;;;;;;;;;19.16;53.66;100449.13;2087118;28;19959;-42
2022/01/02 04:54:04;;;;;;;;;;;;;;;19.15;53.58;100456.44;2092190;28;19916;-42
2022/01/02 04:55:05;;;;;;;;;;;;;;;19.14;53.74;100460.19;2083101;28;20294;-42
2022/01/02 04:56:05;;;;;;;;;;;;;;;19.15;53.61;100459.19;2086570;28;20236;-42
2022/01/02 04:57:05;;;;;;;;;;;;;;;19.15;53.59;100469.25;2092450;28;19936;-42
2022/01/02 04:58:06;;;;;;;;;;;;;;;19.14;53.65;100465.66;2095419;28;19919;-43
2022/01/02 04:59:07;;;;;;;;;;;;;;;19.14;53.61;100465.66;2092549;28;20299;-42
2022/01/02 05:00:07;;;;;;;;;;;;;;;19.14;53.70;100464.81;2091963;28;19916;-42
2022/01/02 05:01:11;;;;;;;;;;;;;;;19.12;53.68;100456.75;2095150;28;20614;-43
2022/01/02 05:02:11;;;;;;;;;;;;;;;19.12;53.71;100459.47;2092002;28;20303;-43
2022/01/02 05:03:12;;;;;;;;;;;;;;;19.12;53.71;100455.88;2093067;28;19916;-42
2022/01/02 05:04:12;;;;;;;;;;;;;;;19.11;53.73;100465.06;2095661;28;19905;-43
2022/01/02 05:05:13;;;;;;;;;;;;;;;19.10;53.67;100464.22;2092674;28;19965;-42
2022/01/02 05:06:13;;;;;;;;;;;;;;;19.11;53.70;100465.94;2084432;28;19923;-42
2022/01/02 05:07:14;;;;;;;;;;;;;;;19.10;53.70;100458.75;2083404;28;19977;-42
2022/01/02 05:08:14;;;;;;;;;;;;;;;19.10;53.71;100452.41;2084996;28;19917;-42
2022/01/02 05:09:15;;;;;;;;;;;;;;;19.09;53.71;100457.03;2080518;28;19967;-43
2022/01/02 05:10:15;;;;;;;;;;;;;;;19.09;53.81;100462.50;2091434;28;19927;-42
2022/01/02 05:11:16;;;;;;;;;;;;;;;19.09;53.74;100470.69;2086374;28;20234;-42
2022/01/02 05:12:17;;;;;;;;;;;;;;;19.08;53.78;100474.41;2087476;28;19987;-43
2022/01/02 05:13:17;;;;;;;;;;;;;;;19.07;53.67;100475.44;2089300;28;19916;-43
2022/01/02 05:14:17;;;;;;;;;;;;;;;19.07;53.75;100475.44;2089675;28;19916;-42
2022/01/02 05:15:17;;;;;;;;;;;;;;;19.07;53.82;100494.56;2085974;28;19917;-42
2022/01/02 05:16:18;;;;;;;;;;;;;;;19.07;53.82;100500.03;2090078;28;19924;-43
2022/01/02 05:17:18;;;;;;;;;;;;;;;19.06;53.86;100484.66;2095812;28;20379;-43
2022/01/02 05:18:18;;;;;;;;;;;;;;;19.05;53.78;100467.34;2093056;28;19962;-43
2022/01/02 05:19:19;;;;;;;;;;;;;;;19.03;53.82;100453.00;2092068;28;19973;-42
2022/01/02 05:20:19;;;;;;;;;;;;;;;19.03;53.85;100460.31;2093635;28;19931;-43
2022/01/02 05:21:19;;;;;;;;;;;;;;;19.03;53.83;100457.56;2091354;28;20548;-43